createdAt,value
2019-03-26T00:01:28.039Z,6.700000
2019-03-26T00:04:05.692Z,6.700000
2019-03-26T00:06:36.956Z,7.700000
2019-03-26T00:09:07.318Z,7.700000
2019-03-26T00:11:37.582Z,11.600000
2019-03-26T00:14:07.852Z,11.600000
2019-03-26T00:16:38.225Z,8.800000
2019-03-26T00:19:08.601Z,8.800000
2019-03-26T00:21:38.868Z,2.200000
2019-03-26T00:24:09.211Z,2.200000
2019-03-26T00:26:39.546Z,6.700000
2019-03-26T00:29:09.914Z,6.700000
2019-03-26T00:31:40.213Z,15.000000
2019-03-26T00:34:19.265Z,15.000000
2019-03-26T00:36:50.257Z,5.700000
2019-03-26T00:39:20.596Z,5.700000
2019-03-26T00:41:50.968Z,7.900000
2019-03-26T00:44:21.328Z,7.900000
2019-03-26T00:46:51.712Z,10.500000
2019-03-26T00:49:22.053Z,10.500000
2019-03-26T00:51:52.322Z,6.600000
2019-03-26T00:54:22.687Z,6.600000
2019-03-26T00:56:53.113Z,7.200000
2019-03-26T00:59:23.592Z,7.200000
2019-03-26T01:01:53.935Z,8.000000
2019-03-26T01:04:32.649Z,8.000000
2019-03-26T01:07:03.666Z,8.800000
2019-03-26T01:09:33.983Z,8.800000
2019-03-26T01:12:04.361Z,5.700000
2019-03-26T01:14:34.723Z,5.700000
2019-03-26T01:17:05.072Z,7.300000
2019-03-26T01:19:35.436Z,7.300000
2019-03-26T01:22:05.786Z,9.000000
2019-03-26T01:24:36.160Z,9.000000
2019-03-26T01:27:06.527Z,8.100000
2019-03-26T01:29:36.895Z,8.100000
2019-03-26T01:32:07.175Z,8.100000
2019-03-26T01:34:45.971Z,8.100000
2019-03-26T01:37:16.839Z,5.400000
2019-03-26T01:39:47.222Z,9.900000
2019-03-26T01:42:17.694Z,9.900000
2019-03-26T01:44:48.175Z,11.300000
2019-03-26T01:47:18.546Z,11.300000
2019-03-26T01:49:48.925Z,9.900000
2019-03-26T01:52:19.385Z,9.900000
2019-03-26T01:54:49.674Z,7.600000
2019-03-26T01:57:19.947Z,7.600000
2019-03-26T01:59:50.322Z,7.900000
2019-03-26T02:02:20.948Z,7.900000
2019-03-26T02:04:59.994Z,7.600000
2019-03-26T02:07:30.896Z,7.600000
2019-03-26T02:10:01.172Z,9.200000
2019-03-26T02:12:31.562Z,9.200000
2019-03-26T02:15:01.795Z,7.300000
2019-03-26T02:17:32.153Z,7.300000
2019-03-26T02:20:02.513Z,9.500000
2019-03-26T02:22:32.866Z,9.500000
2019-03-26T02:25:03.234Z,6.500000
2019-03-26T02:27:33.614Z,6.500000
2019-03-26T02:30:03.978Z,10.400000
2019-03-26T02:32:34.241Z,10.400000
2019-03-26T02:35:17.061Z,7.500000
2019-03-26T02:37:48.836Z,7.500000
2019-03-26T02:40:19.174Z,9.700000
2019-03-26T02:42:49.537Z,9.700000
2019-03-26T02:45:19.889Z,7.200000
2019-03-26T02:47:50.257Z,7.200000
2019-03-26T02:50:20.626Z,7.100000
2019-03-26T02:52:51.003Z,7.100000
2019-03-26T02:55:21.390Z,9.900000
2019-03-26T02:57:51.833Z,9.900000
2019-03-26T03:00:22.190Z,4.800000
2019-03-26T03:02:52.478Z,4.800000
2019-03-26T03:05:35.312Z,12.600000
2019-03-26T03:08:06.345Z,12.600000
2019-03-26T03:10:36.724Z,5.900000
2019-03-26T03:13:12.127Z,5.900000
2019-03-26T03:15:42.621Z,5.600000
2019-03-26T03:18:13.153Z,5.600000
2019-03-26T03:20:43.436Z,8.300000
2019-03-26T03:23:13.797Z,8.300000
2019-03-26T03:25:44.164Z,7.100000
2019-03-26T03:28:14.589Z,7.100000
2019-03-26T03:30:50.017Z,5.100000
2019-03-26T03:33:20.365Z,5.100000
2019-03-26T03:35:52.245Z,7.200000
2019-03-26T03:38:23.355Z,7.200000
2019-03-26T03:40:53.729Z,6.500000
2019-03-26T03:43:24.191Z,6.500000
2019-03-26T03:45:54.545Z,5.600000
2019-03-26T03:48:24.908Z,5.600000
2019-03-26T03:50:55.227Z,4.300000
2019-03-26T03:53:25.577Z,4.300000
2019-03-26T03:55:55.932Z,3.900000
2019-03-26T03:58:26.253Z,3.900000
2019-03-26T04:00:56.633Z,4.600000
2019-03-26T04:03:27.050Z,4.600000
2019-03-26T04:06:08.752Z,5.900000
2019-03-26T04:08:39.695Z,5.900000
2019-03-26T04:11:10.219Z,3.900000
2019-03-26T04:13:40.511Z,3.900000
2019-03-26T04:16:10.882Z,5.100000
2019-03-26T04:18:41.147Z,5.100000
2019-03-26T04:21:11.505Z,5.200000
2019-03-26T04:23:41.907Z,5.200000
2019-03-26T04:26:12.244Z,6.400000
2019-03-26T04:28:42.726Z,6.400000
2019-03-26T04:31:13.091Z,5.100000
2019-03-26T04:33:43.647Z,5.100000
2019-03-26T04:36:25.283Z,5.000000
2019-03-26T04:38:56.914Z,2.800000
2019-03-26T04:41:27.184Z,2.800000
2019-03-26T04:43:57.704Z,7.700000
2019-03-26T04:46:28.008Z,7.700000
2019-03-26T04:48:58.367Z,4.400000
2019-03-26T04:51:28.634Z,4.400000
2019-03-26T04:53:59.027Z,8.000000
2019-03-26T04:56:29.371Z,8.000000
2019-03-26T04:58:59.762Z,4.400000
2019-03-26T05:01:30.125Z,4.400000
2019-03-26T05:04:00.476Z,4.500000
2019-03-26T05:06:37.908Z,4.500000
2019-03-26T05:09:08.839Z,7.200000
2019-03-26T05:11:39.100Z,7.200000
2019-03-26T05:14:09.452Z,3.500000
2019-03-26T05:16:39.811Z,3.500000
2019-03-26T05:19:10.185Z,9.100000
2019-03-26T05:21:41.612Z,9.100000
2019-03-26T05:24:17.013Z,5.400000
2019-03-26T05:26:47.297Z,5.400000
2019-03-26T05:29:17.655Z,6.300000
2019-03-26T05:31:47.907Z,6.300000
2019-03-26T05:34:18.393Z,3.700000
2019-03-26T05:36:51.439Z,3.700000
2019-03-26T05:39:22.380Z,7.400000
2019-03-26T05:41:52.743Z,7.400000
2019-03-26T05:44:23.113Z,2.300000
2019-03-26T05:46:53.704Z,2.300000
2019-03-26T05:49:24.041Z,3.000000
2019-03-26T05:51:54.419Z,3.000000
2019-03-26T05:54:24.792Z,3.000000
2019-03-26T05:56:55.243Z,3.000000
2019-03-26T05:59:25.627Z,5.400000
2019-03-26T06:01:56.077Z,5.400000
2019-03-26T06:04:26.450Z,9.200000
2019-03-26T06:07:04.724Z,9.200000
2019-03-26T06:09:35.643Z,6.100000
2019-03-26T06:12:05.944Z,6.100000
2019-03-26T06:14:36.190Z,9.500000
2019-03-26T06:17:06.661Z,9.500000
2019-03-26T06:19:37.013Z,5.000000
2019-03-26T06:22:07.310Z,5.000000
2019-03-26T06:24:37.681Z,14.800000
2019-03-26T06:27:08.141Z,14.800000
2019-03-26T06:29:38.538Z,7.600000
2019-03-26T06:32:08.908Z,7.600000
2019-03-26T06:34:39.215Z,5.700000
2019-03-26T06:37:17.737Z,5.700000
2019-03-26T06:39:48.655Z,8.700000
2019-03-26T06:42:19.020Z,8.700000
2019-03-26T06:44:49.413Z,6.600000
2019-03-26T06:47:19.784Z,6.600000
2019-03-26T06:49:50.162Z,6.200000
2019-03-26T06:52:20.458Z,6.200000
2019-03-26T06:54:51.801Z,10.000000
2019-03-26T06:57:34.654Z,10.000000
2019-03-26T07:00:07.338Z,7.300000
2019-03-26T07:02:37.851Z,7.300000
2019-03-26T07:05:08.219Z,7.500000
2019-03-26T07:07:38.534Z,7.500000
2019-03-26T07:10:08.951Z,7.400000
2019-03-26T07:12:39.354Z,7.400000
2019-03-26T07:15:09.769Z,6.200000
2019-03-26T07:17:40.080Z,6.200000
2019-03-26T07:20:15.427Z,9.500000
2019-03-26T07:22:45.743Z,9.500000
2019-03-26T07:25:16.097Z,13.600000
2019-03-26T07:27:46.442Z,13.600000
2019-03-26T07:30:16.816Z,10.700000
2019-03-26T07:32:47.059Z,10.700000
2019-03-26T07:35:17.411Z,9.800000
2019-03-26T07:37:47.756Z,9.800000
2019-03-26T07:40:18.329Z,9.200000
2019-03-26T07:42:48.851Z,9.200000
2019-03-26T07:45:19.180Z,11.300000
2019-03-26T07:47:49.712Z,11.300000
2019-03-26T07:50:19.960Z,6.900000
2019-03-26T07:52:50.295Z,8.500000
2019-03-26T07:55:20.628Z,8.500000
2019-03-26T07:57:50.953Z,6.600000
2019-03-26T08:00:21.168Z,6.600000
2019-03-26T08:02:51.603Z,9.400000
2019-03-26T08:05:29.524Z,9.400000
2019-03-26T08:08:00.539Z,7.400000
2019-03-26T08:10:30.915Z,7.400000
2019-03-26T08:13:01.360Z,7.100000
2019-03-26T08:15:31.682Z,7.100000
2019-03-26T08:18:02.034Z,6.200000
2019-03-26T08:20:32.302Z,6.200000
2019-03-26T08:23:02.749Z,10.600000
2019-03-26T08:25:34.022Z,10.600000
2019-03-26T08:28:05.184Z,12.800000
2019-03-26T08:30:35.786Z,12.800000
2019-03-26T08:33:06.105Z,10.800000
2019-03-26T08:35:36.439Z,10.800000
2019-03-26T08:38:12.971Z,6.300000
2019-03-26T08:40:43.670Z,6.300000
2019-03-26T08:43:14.008Z,8.600000
2019-03-26T08:45:44.356Z,8.600000
2019-03-26T08:48:14.706Z,7.400000
2019-03-26T08:50:45.055Z,7.400000
2019-03-26T08:53:15.421Z,8.300000
2019-03-26T08:55:45.799Z,8.300000
2019-03-26T08:58:16.124Z,4.700000
2019-03-26T09:00:46.622Z,4.700000
2019-03-26T09:03:16.965Z,6.800000
2019-03-26T09:05:47.326Z,6.800000
2019-03-26T09:08:25.215Z,8.800000
2019-03-26T09:10:56.113Z,8.800000
2019-03-26T09:13:26.384Z,8.900000
2019-03-26T09:15:56.722Z,8.900000
2019-03-26T09:18:27.192Z,7.900000
2019-03-26T09:20:57.555Z,7.900000
2019-03-26T09:23:27.858Z,8.900000
2019-03-26T09:25:58.052Z,8.900000
2019-03-26T09:28:28.444Z,5.300000
2019-03-26T09:30:59.263Z,5.300000
2019-03-26T09:33:29.638Z,7.800000
2019-03-26T09:36:00.031Z,7.800000
2019-03-26T09:38:38.821Z,4.600000
2019-03-26T09:41:09.846Z,4.600000
2019-03-26T09:43:40.134Z,6.400000
2019-03-26T09:46:10.431Z,6.400000
2019-03-26T09:48:40.738Z,4.000000
2019-03-26T09:51:11.149Z,4.000000
2019-03-26T09:53:41.466Z,6.100000
2019-03-26T09:56:11.767Z,6.100000
2019-03-26T09:58:42.094Z,6.600000
2019-03-26T10:01:12.395Z,6.600000
2019-03-26T10:03:42.695Z,2.700000
2019-03-26T10:06:22.842Z,2.700000
2019-03-26T10:08:54.307Z,5.300000
2019-03-26T10:11:24.726Z,5.300000
2019-03-26T10:13:55.149Z,6.200000
2019-03-26T10:16:25.496Z,6.200000
2019-03-26T10:18:55.909Z,6.700000
2019-03-26T10:21:26.316Z,6.700000
2019-03-26T10:23:56.541Z,5.300000
2019-03-26T10:26:26.885Z,5.300000
2019-03-26T10:28:57.294Z,5.000000
2019-03-26T10:31:27.628Z,5.000000
2019-03-26T10:33:57.983Z,7.600000
2019-03-26T10:36:28.507Z,7.600000
2019-03-26T10:39:05.537Z,9.200000
2019-03-26T10:41:36.358Z,9.200000
2019-03-26T10:44:06.886Z,5.100000
2019-03-26T10:46:37.243Z,5.100000
2019-03-26T10:49:07.531Z,7.100000
2019-03-26T10:51:37.975Z,7.100000
2019-03-26T10:54:08.425Z,7.400000
2019-03-26T10:56:38.768Z,7.400000
2019-03-26T10:59:10.335Z,9.100000
2019-03-26T11:01:40.704Z,9.100000
2019-03-26T11:04:10.897Z,7.200000
2019-03-26T11:06:41.178Z,7.200000
2019-03-26T11:09:23.065Z,7.700000
2019-03-26T11:11:55.846Z,7.700000
2019-03-26T11:14:26.153Z,8.300000
2019-03-26T11:16:56.553Z,8.300000
2019-03-26T11:19:26.886Z,6.000000
2019-03-26T11:22:02.221Z,6.000000
2019-03-26T11:24:32.609Z,5.100000
2019-03-26T11:27:03.013Z,9.100000
2019-03-26T11:29:33.371Z,9.100000
2019-03-26T11:32:03.654Z,8.300000
2019-03-26T11:34:33.973Z,8.300000
2019-03-26T11:37:04.299Z,6.700000
2019-03-26T11:39:34.616Z,6.700000
2019-03-26T11:42:04.965Z,6.600000
2019-03-26T11:44:35.276Z,6.600000
2019-03-26T11:47:05.587Z,9.100000
2019-03-26T11:49:35.903Z,9.100000
2019-03-26T11:52:06.298Z,7.800000
2019-03-26T11:54:36.702Z,7.800000
2019-03-26T11:57:07.097Z,10.000000
2019-03-26T11:59:37.398Z,10.000000
2019-03-26T12:02:07.674Z,8.100000
2019-03-26T12:04:38.085Z,8.100000
2019-03-26T12:07:08.460Z,8.300000
2019-03-26T12:09:46.346Z,8.300000
2019-03-26T12:12:17.228Z,10.100000
2019-03-26T12:14:47.626Z,10.100000
2019-03-26T12:17:18.001Z,5.000000
2019-03-26T12:19:48.491Z,5.000000
2019-03-26T12:22:18.776Z,6.500000
2019-03-26T12:24:49.268Z,6.500000
2019-03-26T12:27:19.577Z,11.900000
2019-03-26T12:29:49.983Z,11.900000
2019-03-26T12:32:20.391Z,10.000000
2019-03-26T12:34:50.676Z,10.000000
2019-03-26T12:37:20.905Z,7.500000
2019-03-26T12:39:59.268Z,7.500000
2019-03-26T12:42:31.010Z,8.600000
2019-03-26T12:45:01.431Z,8.600000
2019-03-26T12:47:31.761Z,9.500000
2019-03-26T12:50:02.163Z,9.500000
2019-03-26T12:52:32.590Z,6.300000
2019-03-26T12:55:03.020Z,6.300000
2019-03-26T12:57:33.361Z,7.600000
2019-03-26T13:00:03.700Z,7.600000
2019-03-26T13:02:35.899Z,7.600000
2019-03-26T13:05:06.443Z,7.600000
2019-03-26T13:07:36.983Z,7.000000
2019-03-26T13:10:13.271Z,7.000000
2019-03-26T13:12:44.655Z,12.700000
2019-03-26T13:15:15.029Z,12.700000
2019-03-26T13:17:45.424Z,5.500000
2019-03-26T13:20:15.766Z,5.500000
2019-03-26T13:22:46.081Z,7.700000
2019-03-26T13:25:16.427Z,7.700000
2019-03-26T13:27:46.796Z,7.500000
2019-03-26T13:30:17.061Z,7.500000
2019-03-26T13:32:47.282Z,6.400000
2019-03-26T13:35:17.624Z,6.400000
2019-03-26T13:37:47.927Z,9.200000
2019-03-26T13:40:27.017Z,9.200000
2019-03-26T13:42:58.149Z,8.300000
2019-03-26T13:45:28.494Z,8.300000
2019-03-26T13:47:58.928Z,11.300000
2019-03-26T13:50:29.225Z,11.300000
2019-03-26T13:52:59.456Z,8.000000
2019-03-26T13:55:29.780Z,8.000000
2019-03-26T13:58:00.080Z,10.600000
2019-03-26T14:00:30.452Z,10.600000
2019-03-26T14:03:00.877Z,10.200000
2019-03-26T14:05:31.314Z,10.200000
2019-03-26T14:08:01.730Z,8.300000
2019-03-26T14:10:40.772Z,8.300000
2019-03-26T14:13:11.784Z,10.000000
2019-03-26T14:15:42.091Z,10.000000
2019-03-26T14:18:12.416Z,9.700000
2019-03-26T14:20:42.756Z,9.700000
2019-03-26T14:23:13.167Z,9.700000
2019-03-26T14:25:43.508Z,9.700000
2019-03-26T14:28:13.928Z,9.800000
2019-03-26T14:30:44.397Z,9.800000
2019-03-26T14:33:14.708Z,6.700000
2019-03-26T14:35:45.082Z,6.700000
2019-03-26T14:38:15.323Z,8.100000
2019-03-26T14:40:54.614Z,8.100000
2019-03-26T14:43:25.897Z,7.200000
2019-03-26T14:45:56.247Z,7.200000
2019-03-26T14:48:26.709Z,7.200000
2019-03-26T14:50:57.026Z,7.200000
2019-03-26T14:53:27.337Z,6.900000
2019-03-26T14:55:57.726Z,6.900000
2019-03-26T14:58:28.021Z,7.800000
2019-03-26T15:00:59.840Z,7.800000
2019-03-26T15:03:30.214Z,8.200000
2019-03-26T15:06:00.578Z,8.200000
2019-03-26T15:08:30.871Z,7.800000
2019-03-26T15:11:08.016Z,7.800000
2019-03-26T15:13:39.005Z,7.700000
2019-03-26T15:16:09.384Z,7.700000
2019-03-26T15:18:39.801Z,9.400000
2019-03-26T15:21:10.184Z,9.400000
2019-03-26T15:23:40.506Z,6.400000
2019-03-26T15:26:10.870Z,6.400000
2019-03-26T15:28:41.114Z,6.300000
2019-03-26T15:31:11.496Z,8.600000
2019-03-26T15:33:41.860Z,8.600000
2019-03-26T15:36:12.118Z,11.400000
2019-03-26T15:38:42.458Z,11.400000
2019-03-26T15:41:21.397Z,6.000000
2019-03-26T15:43:52.512Z,6.000000
2019-03-26T15:46:22.772Z,7.700000
2019-03-26T15:48:53.099Z,7.700000
2019-03-26T15:51:23.450Z,8.800000
2019-03-26T15:53:53.785Z,8.800000
2019-03-26T15:56:24.127Z,6.500000
2019-03-26T15:58:54.500Z,6.500000
2019-03-26T16:01:24.819Z,9.700000
2019-03-26T16:03:55.042Z,9.700000
2019-03-26T16:06:25.347Z,11.600000
2019-03-26T16:08:55.689Z,11.600000
2019-03-26T16:11:35.688Z,11.500000
2019-03-26T16:14:06.752Z,11.500000
2019-03-26T16:16:37.106Z,10.700000
2019-03-26T16:19:07.423Z,10.700000
2019-03-26T16:21:37.857Z,9.500000
2019-03-26T16:24:08.145Z,9.500000
2019-03-26T16:26:38.540Z,8.900000
2019-03-26T16:29:08.994Z,8.900000
2019-03-26T16:31:39.321Z,11.600000
2019-03-26T16:34:09.725Z,11.600000
2019-03-26T16:36:40.150Z,7.700000
2019-03-26T16:39:10.454Z,7.700000
2019-03-26T16:41:48.842Z,8.300000
2019-03-26T16:44:19.866Z,8.300000
2019-03-26T16:46:50.179Z,9.700000
2019-03-26T16:49:20.470Z,9.700000
2019-03-26T16:51:50.865Z,8.900000
2019-03-26T16:54:21.187Z,8.900000
2019-03-26T16:56:51.586Z,10.200000
2019-03-26T16:59:21.870Z,10.200000
2019-03-26T17:01:52.181Z,12.100000
2019-03-26T17:04:22.506Z,12.100000
2019-03-26T17:06:52.885Z,14.800000
2019-03-26T17:09:23.389Z,14.800000
2019-03-26T17:12:03.239Z,8.300000
2019-03-26T17:14:34.149Z,8.300000
2019-03-26T17:17:04.526Z,11.000000
2019-03-26T17:19:34.906Z,11.000000
2019-03-26T17:22:05.309Z,7.300000
2019-03-26T17:24:35.690Z,7.300000
2019-03-26T17:27:06.093Z,11.800000
2019-03-26T17:29:36.372Z,11.800000
2019-03-26T17:32:06.747Z,8.600000
2019-03-26T17:34:37.121Z,8.600000
2019-03-26T17:37:07.505Z,16.200000
2019-03-26T17:39:37.786Z,16.200000
2019-03-26T17:42:16.997Z,9.000000
2019-03-26T17:44:48.275Z,9.000000
2019-03-26T17:47:18.645Z,10.200000
2019-03-26T17:49:49.012Z,10.200000
2019-03-26T17:52:19.389Z,7.400000
2019-03-26T17:54:49.738Z,7.400000
2019-03-26T17:57:20.026Z,7.100000
2019-03-26T17:59:50.383Z,7.100000
2019-03-26T18:02:20.733Z,8.800000
2019-03-26T18:04:51.110Z,8.800000
2019-03-26T18:07:21.489Z,12.300000
2019-03-26T18:09:51.912Z,12.300000
2019-03-26T18:12:30.779Z,11.900000
2019-03-26T18:15:01.796Z,11.900000
2019-03-26T18:17:37.237Z,9.200000
2019-03-26T18:20:07.577Z,9.200000
2019-03-26T18:22:37.914Z,9.200000
2019-03-26T18:25:08.289Z,9.200000
2019-03-26T18:27:38.682Z,11.500000
2019-03-26T18:30:09.223Z,11.500000
2019-03-26T18:32:39.675Z,9.600000
2019-03-26T18:35:09.998Z,9.600000
2019-03-26T18:37:40.378Z,12.700000
2019-03-26T18:40:10.952Z,12.700000
2019-03-26T18:42:44.341Z,13.500000
2019-03-26T18:45:14.898Z,13.500000
2019-03-26T18:47:45.224Z,12.900000
2019-03-26T18:50:15.467Z,12.900000
2019-03-26T18:52:50.737Z,11.000000
2019-03-26T18:55:21.038Z,11.000000
2019-03-26T18:57:51.383Z,11.300000
2019-03-26T19:00:21.736Z,11.200000
2019-03-26T19:02:52.127Z,11.200000
2019-03-26T19:05:22.439Z,9.800000
2019-03-26T19:07:52.802Z,9.800000
2019-03-26T19:10:23.219Z,10.300000
2019-03-26T19:12:58.685Z,10.300000
2019-03-26T19:15:29.032Z,9.700000
2019-03-26T19:18:04.368Z,9.700000
2019-03-26T19:20:34.798Z,10.500000
2019-03-26T19:23:05.081Z,10.500000
2019-03-26T19:25:35.502Z,5.000000
2019-03-26T19:28:05.848Z,5.000000
2019-03-26T19:30:36.232Z,10.900000
2019-03-26T19:33:06.569Z,10.900000
2019-03-26T19:35:36.947Z,7.600000
2019-03-26T19:38:07.319Z,7.600000
2019-03-26T19:40:37.645Z,9.800000
2019-03-26T19:43:11.267Z,9.800000
2019-03-26T19:45:41.960Z,10.700000
2019-03-26T19:48:12.388Z,10.700000
2019-03-26T19:50:42.602Z,8.400000
2019-03-26T19:53:12.933Z,8.400000
2019-03-26T19:55:43.239Z,7.600000
2019-03-26T19:58:13.742Z,7.600000
2019-03-26T20:00:44.063Z,6.500000
2019-03-26T20:03:14.394Z,6.500000
2019-03-26T20:05:44.817Z,9.100000
2019-03-26T20:08:15.182Z,9.100000
2019-03-26T20:10:45.585Z,6.200000
2019-03-26T20:13:24.422Z,6.200000
2019-03-26T20:15:55.400Z,8.200000
2019-03-26T20:18:25.712Z,8.200000
2019-03-26T20:20:56.031Z,6.100000
2019-03-26T20:23:26.438Z,6.100000
2019-03-26T20:25:56.839Z,9.200000
2019-03-26T20:28:27.066Z,9.200000
2019-03-26T20:30:57.389Z,7.300000
2019-03-26T20:33:27.722Z,7.300000
2019-03-26T20:36:03.163Z,8.800000
2019-03-26T20:38:33.583Z,8.800000
2019-03-26T20:41:03.875Z,7.900000
2019-03-26T20:43:37.440Z,7.900000
2019-03-26T20:46:08.106Z,5.900000
2019-03-26T20:48:38.390Z,5.900000
2019-03-26T20:51:08.703Z,9.000000
2019-03-26T20:53:39.017Z,9.000000
2019-03-26T20:56:09.545Z,9.100000
2019-03-26T20:58:39.913Z,9.100000
2019-03-26T21:01:10.207Z,9.600000
2019-03-26T21:03:40.603Z,9.600000
2019-03-26T21:06:10.817Z,8.100000
2019-03-26T21:08:41.137Z,8.100000
2019-03-26T21:11:11.651Z,10.400000
2019-03-26T21:13:50.760Z,10.400000
2019-03-26T21:16:21.614Z,6.100000
2019-03-26T21:18:51.910Z,6.100000
2019-03-26T21:21:22.225Z,5.800000
2019-03-26T21:23:52.611Z,5.800000
2019-03-26T21:26:23.009Z,5.900000
2019-03-26T21:28:53.306Z,5.900000
2019-03-26T21:31:23.613Z,7.100000
2019-03-26T21:33:53.956Z,7.100000
2019-03-26T21:36:24.400Z,6.100000
2019-03-26T21:38:54.692Z,6.100000
2019-03-26T21:41:25.087Z,7.800000
2019-03-26T21:44:04.114Z,7.800000
2019-03-26T21:46:34.949Z,7.900000
2019-03-26T21:49:05.476Z,7.900000
2019-03-26T21:51:35.875Z,5.600000
2019-03-26T21:54:06.248Z,5.600000
2019-03-26T21:56:36.531Z,4.800000
2019-03-26T21:59:06.926Z,4.800000
2019-03-26T22:01:37.330Z,7.000000
2019-03-26T22:04:07.713Z,7.000000
2019-03-26T22:06:38.098Z,5.700000
2019-03-26T22:09:08.403Z,5.700000
2019-03-26T22:11:49.058Z,4.900000
2019-03-26T22:14:19.816Z,4.900000
2019-03-26T22:16:50.221Z,7.300000
2019-03-26T22:19:28.474Z,7.300000
2019-03-26T22:21:59.342Z,7.300000
2019-03-26T22:24:29.706Z,7.000000
2019-03-26T22:26:59.976Z,7.000000
2019-03-26T22:29:30.266Z,6.800000
2019-03-26T22:32:00.868Z,6.800000
2019-03-26T22:34:31.258Z,5.900000
2019-03-26T22:37:01.733Z,5.900000
2019-03-26T22:39:32.118Z,7.800000
2019-03-26T22:42:02.497Z,7.800000
2019-03-26T22:44:32.794Z,6.000000
2019-03-26T22:47:03.182Z,6.000000
2019-03-26T22:49:33.550Z,7.500000
2019-03-26T22:52:03.907Z,7.500000
2019-03-26T22:54:34.280Z,8.200000
2019-03-26T22:57:04.814Z,8.200000
2019-03-26T22:59:35.175Z,10.600000
2019-03-26T23:02:05.664Z,10.600000
2019-03-26T23:04:36.037Z,5.200000
2019-03-26T23:07:06.439Z,5.200000
2019-03-26T23:09:39.112Z,7.700000
2019-03-26T23:12:09.689Z,7.700000
2019-03-26T23:14:45.279Z,6.300000
2019-03-26T23:17:16.028Z,6.300000
2019-03-26T23:19:46.426Z,7.000000
2019-03-26T23:22:16.835Z,7.000000
2019-03-26T23:24:47.254Z,5.100000
2019-03-26T23:27:17.596Z,5.100000
2019-03-26T23:29:47.918Z,10.700000
2019-03-26T23:32:18.239Z,10.700000
2019-03-26T23:34:48.640Z,3.700000
2019-03-26T23:37:18.951Z,3.700000
2019-03-26T23:39:49.352Z,6.600000
2019-03-26T23:42:19.691Z,6.600000
2019-03-26T23:44:58.404Z,6.600000
2019-03-26T23:47:29.159Z,6.600000
2019-03-26T23:49:59.576Z,8.600000
2019-03-26T23:52:29.940Z,8.600000
2019-03-26T23:55:00.337Z,5.800000
2019-03-26T23:57:30.599Z,5.800000
